^^
Saratoga-Weather Station Historical Data
Daily Summary for January 7, 2021 Units:  Metric    English   Both
Daily Weekly Monthly Yearly Custom
  High: Low: Average:
Temperature: 13.7 °C 4.4 °C 9 °C
Dew Point: 5.8 °C 0.9 °C 3.3 °C
Humidity: 93% 44% 70%
Wind Speed: 20.9km/h 0km/h 6.2km/h
Wind Gust: 29km/h - -
Wind- - West
Pressure: 1019.0 hPa 1007.8 hPa -
Precipitation: 0.0 mm    
Historical Graphs
 
 
Tabular Data for January 7, 2021
Time Temperature Dew Point Pressure Wind Wind Speed Wind Gust Humidity Rainfall Rate (Hourly) solar
00:03 6.6 °C 5.5 °C 1007.8 hPa WNW 11.1 km/h 11.3 km/h 93% 0.0 mm 0 W/m2
00:08 6.6 °C 5.5 °C 1007.8 hPa West 9.7 km/h 11.3 km/h 93% 0.0 mm 0 W/m2
00:13 6.6 °C 5.5 °C 1007.8 hPa West 4.7 km/h 9.7 km/h 93% 0.0 mm 0 W/m2
00:18 6.6 °C 5.5 °C 1007.8 hPa WNW 3.2 km/h 6.4 km/h 93% 0.0 mm 0 W/m2
00:23 6.5 °C 5.4 °C 1008.1 hPa West 3.2 km/h 6.4 km/h 93% 0.0 mm 0 W/m2
00:28 6.5 °C 5.4 °C 1007.8 hPa WSW 3.2 km/h 8 km/h 93% 0.0 mm 0 W/m2
00:33 6.5 °C 5.4 °C 1007.8 hPa WNW 3.2 km/h 9.7 km/h 93% 0.0 mm 0 W/m2
00:38 6.5 °C 5.4 °C 1007.8 hPa WSW 4.7 km/h 9.7 km/h 93% 0.0 mm 0 W/m2
00:43 6.5 °C 5.4 °C 1007.8 hPa West 3.2 km/h 8 km/h 93% 0.0 mm 0 W/m2
00:48 6.5 °C 5.4 °C 1008.1 hPa West 4.7 km/h 9.7 km/h 93% 0.0 mm 0 W/m2
00:53 6.6 °C 5.5 °C 1008.1 hPa WNW 1.4 km/h 3.2 km/h 93% 0.0 mm 0 W/m2
00:58 6.5 °C 5.4 °C 1008.5 hPa WNW 4.7 km/h 6.4 km/h 93% 0.0 mm 0 W/m2
01:03 6.5 °C 5.4 °C 1008.5 hPa WNW 3.2 km/h 4.8 km/h 93% 0.0 mm 0 W/m2
01:08 6.5 °C 5.4 °C 1008.5 hPa WSW 4.7 km/h 4.8 km/h 93% 0.0 mm 0 W/m2
01:13 6.5 °C 5.4 °C 1008.5 hPa West 6.4 km/h 9.7 km/h 93% 0.0 mm 0 W/m2
01:18 6.5 °C 5.4 °C 1008.5 hPa WSW 1.4 km/h 6.4 km/h 93% 0.0 mm 0 W/m2
01:23 6.5 °C 5.4 °C 1008.5 hPa West 3.2 km/h 8 km/h 93% 0.0 mm 0 W/m2
01:28 6.4 °C 5.4 °C 1008.5 hPa West 4.7 km/h 4.8 km/h 93% 0.0 mm 0 W/m2
01:33 6.4 °C 5.4 °C 1008.5 hPa WNW 3.2 km/h 6.4 km/h 93% 0.0 mm 0 W/m2
01:38 6.4 °C 5.4 °C 1008.5 hPa Calm   3.2 km/h 93% 0.0 mm 0 W/m2
01:43 6.4 °C 5.4 °C 1008.5 hPa West 3.2 km/h 6.4 km/h 93% 0.0 mm 0 W/m2
01:48 6.4 °C 5.4 °C 1008.5 hPa WNW 1.4 km/h 6.4 km/h 93% 0.0 mm 0 W/m2
01:53 6.4 °C 5.4 °C 1008.5 hPa West 3.2 km/h 6.4 km/h 93% 0.0 mm 0 W/m2
01:58 6.4 °C 5.4 °C 1008.5 hPa WNW 6.4 km/h 11.3 km/h 93% 0.0 mm 0 W/m2
02:03 6.4 °C 5.4 °C 1008.5 hPa WSW 3.2 km/h 11.3 km/h 93% 0.0 mm 0 W/m2
02:08 6.4 °C 5.4 °C 1008.5 hPa West 4.7 km/h 8 km/h 93% 0.0 mm 0 W/m2
02:13 6.4 °C 5.4 °C 1008.5 hPa WNW 4.7 km/h 11.3 km/h 93% 0.0 mm 0 W/m2
02:18 6.3 °C 5.3 °C 1008.5 hPa SW 4.7 km/h 6.4 km/h 93% 0.0 mm 0 W/m2
02:23 6.3 °C 5.3 °C 1008.5 hPa WSW 6.4 km/h 8 km/h 93% 0.0 mm 0 W/m2
02:28 6.3 °C 5.3 °C 1008.5 hPa West 4.7 km/h 9.7 km/h 93% 0.0 mm 0 W/m2
02:33 6.3 °C 5.3 °C 1008.5 hPa WNW 4.7 km/h 9.7 km/h 93% 0.0 mm 0 W/m2
02:38 6.4 °C 5.4 °C 1008.5 hPa West 9.7 km/h 9.7 km/h 93% 0.0 mm 0 W/m2
02:43 6.4 °C 5.4 °C 1008.5 hPa West 1.4 km/h 9.7 km/h 93% 0.0 mm 0 W/m2
02:48 6.4 °C 5.4 °C 1008.5 hPa West 3.2 km/h 4.8 km/h 93% 0.0 mm 0 W/m2
02:53 6.4 °C 5.4 °C 1008.5 hPa WSW 4.7 km/h 16.1 km/h 93% 0.0 mm 0 W/m2
02:58 6.4 °C 5.4 °C 1008.5 hPa WSW 3.2 km/h 6.4 km/h 93% 0.0 mm 0 W/m2
03:03 6.4 °C 5.4 °C 1008.5 hPa WNW 4.7 km/h 16.1 km/h 93% 0.0 mm 0 W/m2
03:08 6.4 °C 5.4 °C 1008.5 hPa SW 11.1 km/h 14.5 km/h 93% 0.0 mm 0 W/m2
05:13 5.2 °C 3.5 °C 1009.8 hPa West 4.7 km/h 9.7 km/h 89% 0.0 mm 0 W/m2
05:18 5.2 °C 3.5 °C 1009.8 hPa WSW 6.4 km/h 11.3 km/h 89% 0.0 mm 0 W/m2
05:23 5.1 °C 3.4 °C 1010.2 hPa West 3.2 km/h 4.8 km/h 89% 0.0 mm 0 W/m2
05:28 5 °C 3.5 °C 1010.2 hPa West 3.2 km/h 11.3 km/h 90% 0.0 mm 0 W/m2
05:33 4.9 °C 3.4 °C 1010.2 hPa WSW 3.2 km/h 6.4 km/h 90% 0.0 mm 0 W/m2
05:38 4.9 °C 3.4 °C 1010.2 hPa West 4.7 km/h 6.4 km/h 90% 0.0 mm 0 W/m2
05:43 4.8 °C 3.3 °C 1010.2 hPa West 6.4 km/h 6.4 km/h 90% 0.0 mm 0 W/m2
05:48 4.7 °C 3.2 °C 1010.2 hPa WNW 4.7 km/h 8 km/h 90% 0.0 mm 0 W/m2
05:53 4.7 °C 3.2 °C 1010.5 hPa West 3.2 km/h 6.4 km/h 90% 0.0 mm 0 W/m2
05:58 4.6 °C 3.1 °C 1010.5 hPa WNW 4.7 km/h 6.4 km/h 90% 0.0 mm 0 W/m2
06:03 4.6 °C 3.1 °C 1010.5 hPa West 4.7 km/h 4.8 km/h 90% 0.0 mm 0 W/m2
06:08 4.6 °C 3.1 °C 1010.5 hPa West 1.4 km/h 8 km/h 90% 0.0 mm 5 W/m2
06:13 4.6 °C 3.3 °C 1010.5 hPa West 1.4 km/h 6.4 km/h 91% 0.0 mm 7 W/m2
06:18 4.5 °C 3.2 °C 1010.8 hPa West 4.7 km/h 4.8 km/h 91% 0.0 mm 9 W/m2
06:23 4.5 °C 3.2 °C 1010.8 hPa West 4.7 km/h 6.4 km/h 91% 0.0 mm 11 W/m2
06:28 4.5 °C 3.2 °C 1010.8 hPa WSW 4.7 km/h 6.4 km/h 91% 0.0 mm 12 W/m2
06:33 4.4 °C 3.1 °C 1010.8 hPa WNW 6.4 km/h 9.7 km/h 91% 0.0 mm 14 W/m2
06:38 4.4 °C 3.1 °C 1010.8 hPa West 6.4 km/h 9.7 km/h 91% 0.0 mm 18 W/m2
06:43 4.4 °C 3.2 °C 1010.8 hPa West 4.7 km/h 9.7 km/h 92% 0.0 mm 21 W/m2
06:48 4.4 °C 3.2 °C 1011.2 hPa WSW 13 km/h 12.9 km/h 92% 0.0 mm 25 W/m2
06:53 4.4 °C 3.2 °C 1011.2 hPa West 4.7 km/h 6.4 km/h 92% 0.0 mm 26 W/m2
06:58 4.5 °C 3.3 °C 1011.2 hPa West 9.7 km/h 11.3 km/h 92% 0.0 mm 28 W/m2
07:03 4.6 °C 3.4 °C 1011.2 hPa West 6.4 km/h 11.3 km/h 92% 0.0 mm 30 W/m2
07:08 4.6 °C 3.4 °C 1011.5 hPa NW 7.9 km/h 14.5 km/h 92% 0.0 mm 35 W/m2
07:13 4.7 °C 3.5 °C 1011.5 hPa WNW 6.4 km/h 20.9 km/h 92% 0.0 mm 88 W/m2
07:18 4.6 °C 3.4 °C 1011.9 hPa WNW 7.9 km/h 19.3 km/h 92% 0.0 mm 90 W/m2
07:23 4.6 °C 3.4 °C 1011.9 hPa WSW 9.7 km/h 16.1 km/h 92% 0.0 mm 79 W/m2
07:28 4.6 °C 3.4 °C 1011.9 hPa WNW 6.4 km/h 12.9 km/h 92% 0.0 mm 77 W/m2
07:33 4.5 °C 3.3 °C 1011.9 hPa WNW 4.7 km/h 14.5 km/h 92% 0.0 mm 79 W/m2
07:38 4.6 °C 3.4 °C 1012.2 hPa WNW 3.2 km/h 12.9 km/h 92% 0.0 mm 62 W/m2
07:43 4.6 °C 3.4 °C 1012.2 hPa WNW 4.7 km/h 11.3 km/h 92% 0.0 mm 56 W/m2
07:48 4.7 °C 3.4 °C 1012.2 hPa West 6.4 km/h 16.1 km/h 91% 0.0 mm 49 W/m2
07:53 4.9 °C 3.6 °C 1012.5 hPa West 11.1 km/h 14.5 km/h 91% 0.0 mm 53 W/m2
07:59 5.1 °C 3.8 °C 1012.5 hPa WSW 4.7 km/h 11.3 km/h 91% 0.0 mm 53 W/m2
08:04 5.2 °C 3.7 °C 1012.2 hPa NW 7.9 km/h 14.5 km/h 90% 0.0 mm 53 W/m2
08:09 5.4 °C 3.9 °C 1012.5 hPa WNW 11.1 km/h 11.3 km/h 90% 0.0 mm 53 W/m2
08:14 5.6 °C 4.1 °C 1012.5 hPa WNW 4.7 km/h 4.8 km/h 90% 0.0 mm 54 W/m2
08:19 5.7 °C 4 °C 1012.5 hPa West 9.7 km/h 9.7 km/h 89% 0.0 mm 58 W/m2
08:24 5.7 °C 3.9 °C 1012.5 hPa WNW 4.7 km/h 12.9 km/h 88% 0.0 mm 54 W/m2
08:29 5.8 °C 3.8 °C 1012.9 hPa NW 6.4 km/h 11.3 km/h 87% 0.0 mm 58 W/m2
08:34 5.9 °C 3.9 °C 1012.9 hPa WNW 6.4 km/h 9.7 km/h 87% 0.0 mm 60 W/m2
08:39 6.2 °C 4.2 °C 1012.9 hPa WSW 4.7 km/h 8 km/h 87% 0.0 mm 98 W/m2
08:44 6.4 °C 4.4 °C 1012.9 hPa NW 1.4 km/h 6.4 km/h 87% 0.0 mm 251 W/m2
08:49 6.7 °C 4.5 °C 1012.9 hPa West 11.1 km/h 11.3 km/h 86% 0.0 mm 350 W/m2
08:54 6.7 °C 4.4 °C 1012.9 hPa West 6.4 km/h 12.9 km/h 85% 0.0 mm 364 W/m2
08:59 6.8 °C 4.5 °C 1012.9 hPa West 11.1 km/h 11.3 km/h 85% 0.0 mm 381 W/m2
09:04 6.9 °C 4.4 °C 1012.9 hPa NW 6.4 km/h 9.7 km/h 84% 0.0 mm 396 W/m2
09:09 7.1 °C 4.6 °C 1012.9 hPa NW 7.9 km/h 16.1 km/h 84% 0.0 mm 406 W/m2
09:14 7.1 °C 4.4 °C 1012.9 hPa West 9.7 km/h 17.7 km/h 83% 0.0 mm 427 W/m2
09:19 7.3 °C 4.6 °C 1012.9 hPa WNW 11.1 km/h 14.5 km/h 83% 0.0 mm 443 W/m2
09:24 7.4 °C 4.5 °C 1012.9 hPa WSW 6.4 km/h 19.3 km/h 82% 0.0 mm 448 W/m2
09:29 7.5 °C 4.6 °C 1013.2 hPa WSW 7.9 km/h 12.9 km/h 82% 0.0 mm 473 W/m2
09:34 7.7 °C 4.6 °C 1013.2 hPa WNW 3.2 km/h 16.1 km/h 81% 0.0 mm 464 W/m2
09:39 8 °C 5.1 °C 1013.2 hPa WNW 6.4 km/h 12.9 km/h 82% 0.0 mm 88 W/m2
09:44 7.9 °C 4.7 °C 1013.2 hPa West 1.4 km/h 17.7 km/h 80% 0.0 mm 121 W/m2
09:49 8.2 °C 5 °C 1013.2 hPa WNW 16.3 km/h 19.3 km/h 80% 0.0 mm 527 W/m2
09:54 8.2 °C 5 °C 1013.2 hPa WSW 11.1 km/h 16.1 km/h 80% 0.0 mm 575 W/m2
09:59 8.3 °C 5.1 °C 1013.5 hPa WNW 7.9 km/h 11.3 km/h 80% 0.0 mm 617 W/m2
10:04 8.4 °C 5 °C 1013.5 hPa West 6.4 km/h 14.5 km/h 79% 0.0 mm 680 W/m2
10:09 8.6 °C 5.3 °C 1013.5 hPa West 14.3 km/h 14.5 km/h 80% 0.0 mm 640 W/m2
10:14 8.8 °C 5.5 °C 1013.5 hPa WNW 6.4 km/h 11.3 km/h 80% 0.0 mm 631 W/m2
10:19 9.1 °C 5.8 °C 1013.5 hPa WNW 7.9 km/h 11.3 km/h 80% 0.0 mm 696 W/m2
10:24 9.1 °C 5.1 °C 1013.9 hPa West 13 km/h 22.5 km/h 76% 0.0 mm 671 W/m2
10:29 8.9 °C 4.7 °C 1013.9 hPa West 13 km/h 20.9 km/h 75% 0.0 mm 671 W/m2
10:34 8.9 °C 4.7 °C 1014.2 hPa West 9.7 km/h 17.7 km/h 75% 0.0 mm 671 W/m2
10:39 9.1 °C 4.9 °C 1014.2 hPa WNW 11.1 km/h 24.1 km/h 75% 0.0 mm 207 W/m2
10:44 8.9 °C 4.9 °C 1014.2 hPa West 14.3 km/h 14.5 km/h 76% 0.0 mm 127 W/m2
10:49 8.8 °C 4.6 °C 1014.2 hPa West 11.1 km/h 20.9 km/h 75% 0.0 mm 737 W/m2
10:54 8.9 °C 4.3 °C 1014.6 hPa WNW 17.7 km/h 27.4 km/h 73% 0.0 mm 724 W/m2
10:59 9.1 °C 4.5 °C 1014.6 hPa WNW 20.9 km/h 29 km/h 73% 0.0 mm 851 W/m2
11:04 9.3 °C 4.3 °C 1014.6 hPa WSW 13 km/h 20.9 km/h 71% 0.0 mm 874 W/m2
11:09 9.2 °C 3.6 °C 1014.6 hPa WSW 19.5 km/h 29 km/h 68% 0.0 mm 139 W/m2
11:14 8.9 °C 3.9 °C 1014.6 hPa West 11.1 km/h 22.5 km/h 71% 0.0 mm 840 W/m2
11:19 9.1 °C 3.9 °C 1014.9 hPa West 13 km/h 25.7 km/h 70% 0.0 mm 796 W/m2
11:24 9.2 °C 4 °C 1014.9 hPa WSW 16.3 km/h 19.3 km/h 70% 0.0 mm 865 W/m2
11:29 9.5 °C 3.9 °C 1014.9 hPa WNW 11.1 km/h 22.5 km/h 68% 0.0 mm 969 W/m2
11:34 9.3 °C 3.7 °C 1015.2 hPa West 13 km/h 19.3 km/h 68% 0.0 mm 236 W/m2
11:39 9.3 °C 3.9 °C 1015.2 hPa West 11.1 km/h 19.3 km/h 69% 0.0 mm 860 W/m2
11:44 9.2 °C 3.6 °C 1015.2 hPa West 11.1 km/h 25.7 km/h 68% 0.0 mm 826 W/m2
11:49 9.6 °C 3.8 °C 1015.2 hPa West 19.5 km/h 24.1 km/h 67% 0.0 mm 912 W/m2
11:54 9.7 °C 3 °C 1015.2 hPa NNW 16.3 km/h 17.7 km/h 63% 0.0 mm 271 W/m2
11:59 9.6 °C 2 °C 1015.6 hPa NW 14.3 km/h 24.1 km/h 59% 0.0 mm 141 W/m2
12:04 9.6 °C 2.7 °C 1015.2 hPa WSW 14.3 km/h 22.5 km/h 62% 0.0 mm 916 W/m2
12:09 9.8 °C 2.9 °C 1015.6 hPa West 13 km/h 22.5 km/h 62% 0.0 mm 1020 W/m2
12:14 9.9 °C 3 °C 1015.6 hPa West 9.7 km/h 20.9 km/h 62% 0.0 mm 316 W/m2
12:19 10 °C 3.3 °C 1015.6 hPa WSW 11.1 km/h 20.9 km/h 63% 0.0 mm 387 W/m2
12:24 9.7 °C 2.8 °C 1015.9 hPa West 16.3 km/h 19.3 km/h 62% 0.0 mm 251 W/m2
12:29 9.7 °C 3 °C 1015.9 hPa WSW 17.7 km/h 22.5 km/h 63% 0.0 mm 888 W/m2
12:54 10.2 °C 3.7 °C 1016.3 hPa West 13 km/h 22.5 km/h 64% 0.0 mm 323 W/m2
12:59 10.3 °C 3.6 °C 1016.3 hPa West 9.7 km/h 19.3 km/h 63% 0.0 mm 323 W/m2
13:04 10.3 °C 4 °C 1016.3 hPa NW 7.9 km/h 19.3 km/h 65% 0.0 mm 459 W/m2
13:09 10.6 °C 3.8 °C 1016.3 hPa WSW 7.9 km/h 25.7 km/h 63% 0.0 mm 990 W/m2
13:14 10.8 °C 2.9 °C 1016.3 hPa West 6.4 km/h 11.3 km/h 58% 0.0 mm 977 W/m2
13:19 10.6 °C 2.4 °C 1016.3 hPa West 11.1 km/h 20.9 km/h 57% 0.0 mm 188 W/m2
13:24 10.8 °C 2.1 °C 1016.3 hPa West 14.3 km/h 19.3 km/h 55% 0.0 mm 1102 W/m2
13:29 10.7 °C 1.8 °C 1016.3 hPa West 9.7 km/h 12.9 km/h 54% 0.0 mm 371 W/m2
13:34 10.8 °C 2.6 °C 1016.3 hPa WSW 16.3 km/h 19.3 km/h 57% 0.0 mm 1037 W/m2
13:39 10.9 °C 2.7 °C 1016.3 hPa West 11.1 km/h 12.9 km/h 57% 0.0 mm 209 W/m2
13:51 11.6 °C 3.1 °C 1016.3 hPa North 4.7 km/h 14.5 km/h 56% 0.0 mm 993 W/m2
13:56 11.7 °C 3.2 °C 1016.3 hPa West 4.7 km/h 16.1 km/h 56% 0.0 mm 1078 W/m2
14:01 11.6 °C 3.1 °C 1016.3 hPa NW 4.7 km/h 16.1 km/h 56% 0.0 mm 991 W/m2
14:06 11.8 °C 3 °C 1016.3 hPa West 4.7 km/h 11.3 km/h 55% 0.0 mm 1092 W/m2
14:11 12.1 °C 2.5 °C 1016.6 hPa NW 14.3 km/h 17.7 km/h 52% 0.0 mm 1118 W/m2
14:16 11.8 °C 2 °C 1016.6 hPa West 11.1 km/h 16.1 km/h 51% 0.0 mm 1065 W/m2
14:21 11.8 °C 2.5 °C 1016.6 hPa WSW 7.9 km/h 11.3 km/h 53% 0.0 mm 1051 W/m2
14:26 11.9 °C 2.9 °C 1016.6 hPa WSW 13 km/h 22.5 km/h 54% 0.0 mm 1065 W/m2
14:31 12.1 °C 2.3 °C 1016.6 hPa WSW 7.9 km/h 16.1 km/h 51% 0.0 mm 1079 W/m2
14:36 12.1 °C 2.5 °C 1016.9 hPa West 11.1 km/h 20.9 km/h 52% 0.0 mm 265 W/m2
14:41 11.9 °C 2.6 °C 1016.9 hPa North 14.3 km/h 19.3 km/h 53% 0.0 mm 1034 W/m2
14:46 11.9 °C 2.6 °C 1016.9 hPa WNW 7.9 km/h 20.9 km/h 53% 0.0 mm 179 W/m2
14:51 11.8 °C 2.5 °C 1016.9 hPa NW 13 km/h 14.5 km/h 53% 0.0 mm 243 W/m2
14:56 12 °C 2.7 °C 1016.9 hPa WNW 4.7 km/h 14.5 km/h 53% 0.0 mm 1005 W/m2
15:01 12.3 °C 3 °C 1016.9 hPa WSW 16.3 km/h 22.5 km/h 53% 0.0 mm 954 W/m2
15:06 12.3 °C 2.7 °C 1016.9 hPa SW 7.9 km/h 12.9 km/h 52% 0.0 mm 1028 W/m2
15:11 12.4 °C 2.5 °C 1016.9 hPa West 6.4 km/h 9.7 km/h 51% 0.0 mm 1032 W/m2
15:16 12.3 °C 2.2 °C 1016.9 hPa NW 3.2 km/h 17.7 km/h 50% 0.0 mm 265 W/m2
15:21 12.2 °C 2.4 °C 1016.9 hPa NW 4.7 km/h 16.1 km/h 51% 0.0 mm 267 W/m2
15:26 12.1 °C 2.3 °C 1016.9 hPa West 9.7 km/h 12.9 km/h 51% 0.0 mm 265 W/m2
15:31 12.1 °C 2 °C 1016.9 hPa West 3.2 km/h 16.1 km/h 50% 0.0 mm 287 W/m2
15:36 12.2 °C 2.6 °C 1016.9 hPa West 6.4 km/h 14.5 km/h 52% 0.0 mm 188 W/m2
15:41 12.1 °C 2 °C 1017.3 hPa North 3.2 km/h 8 km/h 50% 0.0 mm 919 W/m2
15:46 12.3 °C 1.9 °C 1017.3 hPa North 3.2 km/h 12.9 km/h 49% 0.0 mm 947 W/m2
15:51 12.6 °C 2.7 °C 1017.3 hPa West 3.2 km/h 9.7 km/h 51% 0.0 mm 912 W/m2
15:56 13 °C 2.5 °C 1017.3 hPa WNW 9.7 km/h 11.3 km/h 49% 0.0 mm 872 W/m2
16:01 13.3 °C 2.2 °C 1017.3 hPa NW 7.9 km/h 16.1 km/h 47% 0.0 mm 874 W/m2
16:06 13.4 °C 2 °C 1016.9 hPa West 6.4 km/h 17.7 km/h 46% 0.0 mm 846 W/m2
16:11 13.2 °C 1.8 °C 1016.9 hPa NW 4.7 km/h 16.1 km/h 46% 0.0 mm 870 W/m2
16:16 13.3 °C 2.2 °C 1016.9 hPa WNW 4.7 km/h 9.7 km/h 47% 0.0 mm 570 W/m2
16:21 13.4 °C 1.7 °C 1017.3 hPa West 11.1 km/h 12.9 km/h 45% 0.0 mm 900 W/m2
16:26 13.6 °C 2.5 °C 1017.3 hPa WNW 6.4 km/h 17.7 km/h 47% 0.0 mm 830 W/m2
16:31 13.2 °C 1.8 °C 1017.3 hPa West 11.1 km/h 20.9 km/h 46% 0.0 mm 835 W/m2
16:36 12.9 °C 0.9 °C 1017.3 hPa NNW 4.7 km/h 17.7 km/h 44% 0.0 mm 121 W/m2
16:41 12.8 °C 1.2 °C 1017.3 hPa WNW 13 km/h 12.9 km/h 45% 0.0 mm 791 W/m2
16:46 13.2 °C 1.5 °C 1017.3 hPa WNW 6.4 km/h 14.5 km/h 45% 0.0 mm 768 W/m2
16:51 13.4 °C 1.7 °C 1017.3 hPa West 11.1 km/h 14.5 km/h 45% 0.0 mm 795 W/m2
16:56 13.5 °C 1.5 °C 1017.3 hPa West 16.3 km/h 16.1 km/h 44% 0.0 mm 798 W/m2
17:01 13.4 °C 1.4 °C 1017.3 hPa WNW 11.1 km/h 12.9 km/h 44% 0.0 mm 756 W/m2
17:06 13.4 °C 2 °C 1017.6 hPa WNW 6.4 km/h 20.9 km/h 46% 0.0 mm 693 W/m2
17:11 13.4 °C 2 °C 1017.6 hPa WNW 6.4 km/h 14.5 km/h 46% 0.0 mm 654 W/m2
17:16 13.3 °C 1.9 °C 1017.6 hPa West 14.3 km/h 20.9 km/h 46% 0.0 mm 640 W/m2
17:21 13.4 °C 1.4 °C 1017.6 hPa West 1.4 km/h 12.9 km/h 44% 0.0 mm 633 W/m2
17:27 13.6 °C 1.9 °C 1017.6 hPa West 13 km/h 19.3 km/h 45% 0.0 mm 640 W/m2
17:32 13.4 °C 1.7 °C 1017.6 hPa WNW 7.9 km/h 16.1 km/h 45% 0.0 mm 622 W/m2
17:37 13.3 °C 1.3 °C 1017.6 hPa West 6.4 km/h 19.3 km/h 44% 0.0 mm 104 W/m2
17:42 13 °C 1.6 °C 1017.6 hPa West 9.7 km/h 12.9 km/h 46% 0.0 mm 148 W/m2
17:47 13 °C 1.3 °C 1017.6 hPa NW 4.7 km/h 8 km/h 45% 0.0 mm 605 W/m2
17:52 13.4 °C 2 °C 1017.6 hPa Calm   12.9 km/h 46% 0.0 mm 596 W/m2
17:57 13.7 °C 1.7 °C 1017.6 hPa WNW 6.4 km/h 14.5 km/h 44% 0.0 mm 111 W/m2
18:02 13.3 °C 1.6 °C 1017.6 hPa WSW 4.7 km/h 16.1 km/h 45% 0.0 mm 113 W/m2
18:07 12.8 °C 1.5 °C 1017.6 hPa WNW 6.4 km/h 11.3 km/h 46% 0.0 mm 158 W/m2
18:12 12.9 °C 1.9 °C 1017.6 hPa NW 3.2 km/h 16.1 km/h 47% 0.0 mm 550 W/m2
18:17 13.1 °C 1.7 °C 1017.6 hPa NNW 1.4 km/h 4.8 km/h 46% 0.0 mm 313 W/m2
18:22 13.4 °C 2.6 °C 1017.6 hPa West 3.2 km/h 11.3 km/h 48% 0.0 mm 497 W/m2
18:27 13.6 °C 1.6 °C 1017.6 hPa WNW 6.4 km/h 12.9 km/h 44% 0.0 mm 125 W/m2
18:32 13.1 °C 1.1 °C 1017.6 hPa NW 4.7 km/h 12.9 km/h 44% 0.0 mm 139 W/m2
18:37 12.8 °C 1.5 °C 1018.0 hPa West 14.3 km/h 14.5 km/h 46% 0.0 mm 98 W/m2
18:42 12.8 °C 1.5 °C 1017.6 hPa WSW 7.9 km/h 12.9 km/h 46% 0.0 mm 378 W/m2
18:47 13.2 °C 1.8 °C 1017.6 hPa WNW 11.1 km/h 12.9 km/h 46% 0.0 mm 346 W/m2
18:52 13.2 °C 1.8 °C 1017.6 hPa WSW 3.2 km/h 8 km/h 46% 0.0 mm 76 W/m2
18:57 13.2 °C 1.5 °C 1017.6 hPa WNW 6.4 km/h 11.3 km/h 45% 0.0 mm 283 W/m2
19:02 13.1 °C 1.4 °C 1017.6 hPa NW 4.7 km/h 11.3 km/h 45% 0.0 mm 269 W/m2
19:07 13.2 °C 1.5 °C 1018.0 hPa NW 7.9 km/h 8 km/h 45% 0.0 mm 260 W/m2
19:12 13.2 °C 1.8 °C 1018.0 hPa NW 6.4 km/h 12.9 km/h 46% 0.0 mm 84 W/m2
19:17 12.9 °C 1.9 °C 1017.6 hPa WSW 6.4 km/h 11.3 km/h 47% 0.0 mm 63 W/m2
19:22 12.5 °C 1.8 °C 1017.6 hPa NW 6.4 km/h 14.5 km/h 48% 0.0 mm 60 W/m2
19:27 12.3 °C 2.2 °C 1018.0 hPa WNW 3.2 km/h 11.3 km/h 50% 0.0 mm 60 W/m2
19:32 12.3 °C 2.2 °C 1018.0 hPa WSW 6.4 km/h 14.5 km/h 50% 0.0 mm 202 W/m2
19:37 12.5 °C 2.6 °C 1018.0 hPa West 1.4 km/h 4.8 km/h 51% 0.0 mm 105 W/m2
19:42 12.6 °C 2.4 °C 1018.0 hPa WNW 3.2 km/h 4.8 km/h 50% 0.0 mm 76 W/m2
19:47 12.5 °C 2.9 °C 1018.0 hPa WNW 3.2 km/h 6.4 km/h 52% 0.0 mm 183 W/m2
19:52 12.6 °C 2.2 °C 1018.0 hPa WNW 3.2 km/h 6.4 km/h 49% 0.0 mm 156 W/m2
19:57 12.7 °C 2.5 °C 1018.0 hPa NW 3.2 km/h 4.8 km/h 50% 0.0 mm 109 W/m2
20:02 12.7 °C 2.5 °C 1018.0 hPa WNW 1.4 km/h 4.8 km/h 50% 0.0 mm 93 W/m2
20:07 12.8 °C 2.9 °C 1018.0 hPa Calm   3.2 km/h 51% 0.0 mm 74 W/m2
20:12 12.8 °C 2.3 °C 1018.0 hPa West 1.4 km/h 3.2 km/h 49% 0.0 mm 70 W/m2
20:17 12.8 °C 2.9 °C 1018.0 hPa West 1.4 km/h 3.2 km/h 51% 0.0 mm 67 W/m2
20:22 12.5 °C 2.4 °C 1018.0 hPa SW 6.4 km/h 6.4 km/h 50% 0.0 mm 39 W/m2
20:27 12.1 °C 2.3 °C 1018.3 hPa West 3.2 km/h 6.4 km/h 51% 0.0 mm 23 W/m2
20:32 11.8 °C 2 °C 1018.3 hPa WSW 4.7 km/h 8 km/h 51% 0.0 mm 16 W/m2
20:37 11.5 °C 2 °C 1018.3 hPa WSW 1.4 km/h 6.4 km/h 52% 0.0 mm 16 W/m2
20:42 11.3 °C 2.1 °C 1018.3 hPa West 1.4 km/h 1.6 km/h 53% 0.0 mm 14 W/m2
20:47 11.1 °C 2.1 °C 1018.3 hPa WSW 1.4 km/h 4.8 km/h 54% 0.0 mm 11 W/m2
20:52 10.8 °C 2.4 °C 1018.3 hPa WSW 3.2 km/h 3.2 km/h 56% 0.0 mm 7 W/m2
20:57 10.6 °C 2.4 °C 1018.3 hPa WSW 3.2 km/h 3.2 km/h 57% 0.0 mm 5 W/m2
21:02 10.3 °C 2.2 °C 1018.3 hPa Calm   3.2 km/h 57% 0.0 mm 0 W/m2
21:07 10.1 °C 2.2 °C 1018.3 hPa WSW 1.4 km/h 4.8 km/h 58% 0.0 mm 0 W/m2
21:12 9.9 °C 2 °C 1018.3 hPa SW 1.4 km/h 4.8 km/h 58% 0.0 mm 0 W/m2
21:17 9.8 °C 1.7 °C 1018.3 hPa West 3.2 km/h 4.8 km/h 57% 0.0 mm 0 W/m2
21:22 9.7 °C 1.8 °C 1018.6 hPa West 6.4 km/h 6.4 km/h 58% 0.0 mm 0 W/m2
21:27 9.7 °C 1.8 °C 1018.6 hPa West 1.4 km/h 3.2 km/h 58% 0.0 mm 0 W/m2
21:32 9.7 °C 2.5 °C 1018.6 hPa West 1.4 km/h 6.4 km/h 61% 0.0 mm 0 W/m2
21:37 9.4 °C 2.7 °C 1018.6 hPa Calm     63% 0.0 mm 0 W/m2
21:42 9.3 °C 2.8 °C 1018.6 hPa Calm   1.6 km/h 64% 0.0 mm 0 W/m2
21:47 9 °C 3 °C 1018.6 hPa Calm   3.2 km/h 66% 0.0 mm 0 W/m2
21:52 8.7 °C 2.9 °C 1018.3 hPa Calm   1.6 km/h 67% 0.0 mm 0 W/m2
21:57 8.4 °C 2.8 °C 1018.6 hPa Calm     68% 0.0 mm 0 W/m2
22:02 8.1 °C 2.8 °C 1018.3 hPa Calm     69% 0.0 mm 0 W/m2
22:07 7.9 °C 2.8 °C 1018.6 hPa Calm     70% 0.0 mm 0 W/m2
22:12 7.7 °C 2.8 °C 1018.6 hPa Calm     71% 0.0 mm 0 W/m2
22:17 7.4 °C 2.5 °C 1018.6 hPa Calm     71% 0.0 mm 0 W/m2
22:22 7.2 °C 2.5 °C 1018.6 hPa Calm     72% 0.0 mm 0 W/m2
22:27 7.1 °C 2.4 °C 1018.3 hPa Calm     72% 0.0 mm 0 W/m2
22:32 6.9 °C 2.2 °C 1018.6 hPa Calm     72% 0.0 mm 0 W/m2
22:37 6.8 °C 2.1 °C 1018.6 hPa Calm     72% 0.0 mm 0 W/m2
22:42 6.7 °C 2.2 °C 1018.6 hPa Calm     73% 0.0 mm 0 W/m2
22:47 6.7 °C 2.2 °C 1018.6 hPa Calm     73% 0.0 mm 0 W/m2
22:52 6.6 °C 2.3 °C 1018.6 hPa Calm     74% 0.0 mm 0 W/m2
22:57 6.5 °C 2.4 °C 1018.6 hPa Calm     75% 0.0 mm 0 W/m2
23:02 6.4 °C 2.5 °C 1019.0 hPa West 1.4 km/h 1.6 km/h 76% 0.0 mm 0 W/m2
23:07 6.5 °C 2.6 °C 1018.6 hPa Calm     76% 0.0 mm 0 W/m2
23:12 6.4 °C 2.5 °C 1018.6 hPa Calm     76% 0.0 mm 0 W/m2
23:17 6.3 °C 2.4 °C 1018.6 hPa Calm     76% 0.0 mm 0 W/m2
23:22 6.3 °C 2.6 °C 1018.6 hPa Calm     77% 0.0 mm 0 W/m2
23:27 6.2 °C 2.6 °C 1018.6 hPa Calm     78% 0.0 mm 0 W/m2
23:32 6.1 °C 2.6 °C 1018.6 hPa Calm     78% 0.0 mm 0 W/m2
23:37 5.9 °C 2.5 °C 1018.6 hPa Calm     79% 0.0 mm 0 W/m2
23:42 5.8 °C 2.3 °C 1018.6 hPa Calm     78% 0.0 mm 0 W/m2
23:47 5.7 °C 2.3 °C 1018.6 hPa Calm     79% 0.0 mm 0 W/m2
23:52 5.6 °C 2.2 °C 1018.6 hPa Calm     79% 0.0 mm 0 W/m2
23:57 5.5 °C 2.1 °C 1018.6 hPa Calm     79% 0.0 mm 0 W/m2
Juneau County Weather
Compliments of Weather Underground - 2 mb